KEAU/EAU METAR and TAF weather

Enter ICAO airport designator
Station Type Date Time Source
KEAU METAR 2021/03/06 01:56 UTC NOAA

KEAU 060156Z 00000KT 10SM CLR 01/M07 A3033 RMK AO2 SLP282 T00061067


Station Type Date Time Source
KEAU Decoded METAR 2021/03/06 01:56 UTC NOAA

EAU CLAIRE CHIPPEWA VALLEY, WI, United States (KEAU) 44-52N 091-29W
Mar 05, 2021 - 08:56 PM EST / 2021.03.06 0156 UTC
Wind: Calm:0
Visibility: 10 mile(s):0
Sky conditions: clear
Temperature: 33.1 F (0.6 C)
Dew Point: 19.9 F (-6.7 C)
Relative Humidity: 58%
Pressure (altimeter): 30.33 in. Hg (1027 hPa)
ob: KEAU 060156Z 00000KT 10SM CLR 01/M07 A3033 RMK AO2 SLP282 T00061067
cycle: 2

Station Type Date Time Source
KEAU TAF 2021/03/05 18:33 UTC NOAA

TAF KEAU 051730Z 0518/0618 00000KT P6SM BKN070
FM051900 VRB02KT P6SM SCT250
FM061700 12004KT P6SM FEW100

Example: see airport list